ZBAA

Beijing Capital International Airport

Airport
ICAO code
ZBAA
IATA Code
PEK
Summary
ICAO Region
APAC
ICAO Territory
Location

Chaoyang District, Beijing

Serving
Beijing
Elevation
116 ft
Coordinates
40° 4' 31" N , 116° 35' 32" E
KCC
Cwa
Metar
Observation
ZBAA 152130Z 02002MPS CAVOK 19/17 Q1008 NOSIG
Station
Beijing
Date/Time
2022-08-15 21:30:00
Wind direction
20°
Lowest cloud amount
clouds and visibility OK
Temperature
19°C
Dew point
17°C
Humidity
88%
QNH
1008 hPa
Weather condition
n/a

Description

International airport serving the city of Beijing.

Climatology

Within the Köppen Climate Classification System, ((Koppen climate classification Cwa)) this climate type generally has warm and humid summers with mild winters. Its extent is from 30 to 50° of latitude mainly on the eastern and western borders of most continents. During the winter, the main weather feature is the mid-latitude cyclone. Convective thunderstorms provide precipitation in the summer months.

Airport map

Aerial View

SKYbrary Partners:

Safety knowledge contributed by: